Skip Navigation Links
NOAA logo - Click to go to the NOAA homepage
NOAA's National Weather Service
Alaska Aviation Weather Unit
  NWS logo - Click to go to the NWS homepage
Left Navbar Graphic     23 AKDT = 07 GMT

   
NOAA is celebrating 200 years of science, service, and stewardship. Visit the NOAA 200th celebration Web site to learn more.
USA.gov is the U.S. Government's official Web portal to all Federal, state and local government Web resources and services.
Facebook
NWS on Facebook

Important Change Regarding the AAWU Web Presence

 

Over the last several months, the AAWU has been working to navigate its webpages to a nationally supported server. Security, as well as other needs, have necessitated the change.  In the process, we have made an effort to enhance the functionality of our website, as well as some of our products. As of June 20, 2017, aawu.arh.noaa.gov will be discontinued. The new AAWU web address is weather.gov/aawu. It is now live and will run in-parallel with the old site until it is discontinued. Please send any feedback or questions regarding the new webpages to nws.ar.aawu.webauthors@noaa.gov.  Thank you for your patience during this time of transition.
AAWU Home :: Display TAF Add Bookmark
METAR PAIG 240156Z AUTO 04007KT 10SM -RA OVC029 06/03 A2998 RMK AO2
     SLP162 P0001 T00610028 $=

SPECI PAIG 240242Z AUTO 05008KT 10SM -RA OVC031 06/04 A2996 RMK AO2
 P0000 $=

METAR PAIG 240256Z AUTO 04007KT 10SM -RA FEW023 OVC031 07/04 A2995 RMK
     AO2 SLP154 P0000 60001 T00670039 56019 $=

METAR PAIG 240356Z AUTO 06004KT 10SM -RA OVC033 07/04 A2993 RMK AO2
     SLP146 P0000 T00670044 $=

METAR PAIG 240556Z AUTO 10006KT 10SM -RA BKN036 BKN042 OVC060 08/07
 A2989 RMK AO2 SLP134 P0002 60003 T00830067 10089 20056 56020 $=

METAR PAIG 240656Z AUTO 08005KT 8SM -RA BKN034 OVC041 07/07 A2988 RMK
     AO2 SLP131 P0003 T00720067 $=

SPECI PAIG 240744Z AUTO 09003KT 8SM -RA BKN026 OVC034 07/06 A2988 RMK
     AO2 P0003 $=


NOAA's National Weather Service
Alaska Aviation Weather Unit
6930 Sand Lake Road
Anchorage, AK 99502-1845
Disclaimer
Credits
Glossary
Privacy Policy
About Us
Career Opportunities
Contact AAWU Internet Services Site last modified: April, 17th 2012